Time;durP1;ratioP1;P1;durP2;ratioP2;P2;SDS_P1;SDS_P2;PMS_P1;PMS_P2;Temp;Humidity;BMP_temperature;BMP_pressure;BME280_temperature;BME280_humidity;BME280_pressure;Samples;Min_cycle;Max_cycle;Signal;HPM_P1;HPM_P2
2022/12/24 00:01:49;;;;;;;;;;;;;;;0.43;70.08;97733.59;6298268;28;19920;-68
2022/12/24 00:04:52;;;;;;;;;;;;;;;0.45;69.64;97730.97;6298261;28;19920;-69
2022/12/24 00:07:55;;;;;;;;;;;;;;;0.40;70.53;97735.38;6298095;28;19921;-68
2022/12/24 00:10:59;;;;;;;;;;;;;;;0.48;70.43;97732.66;6298159;28;20386;-68
2022/12/24 00:14:00;;;;;;;;;;;;;;;0.53;70.27;97733.47;6297939;28;19920;-69
2022/12/24 00:17:03;;;;;;;;;;;;;;;0.55;70.63;97729.16;6297726;28;19924;-69
2022/12/24 00:20:05;;;;;;;;;;;;;;;0.65;70.09;97733.34;6297699;28;20310;-69
2022/12/24 00:23:09;;;;;;;;;;;;;;;0.47;69.98;97730.97;6297881;28;19920;-68
2022/12/24 00:26:10;;;;;;;;;;;;;;;0.51;70.37;97719.69;6297348;28;20393;-68
2022/12/24 00:29:11;;;;;;;;;;;;;;;0.54;70.05;97727.41;6296994;28;20297;-68
2022/12/24 00:32:17;;;;;;;;;;;;;;;0.68;70.49;97725.56;6297434;28;19924;-68
2022/12/24 00:35:18;;;;;;;;;;;;;;;0.85;69.62;97731.38;6296696;28;20009;-68
2022/12/24 00:38:21;;;;;;;;;;;;;;;0.84;70.18;97727.06;6297271;28;20385;-68
2022/12/24 00:41:27;;;;;;;;;;;;;;;0.77;70.20;97738.38;6297209;28;19920;-68
2022/12/24 00:44:30;;;;;;;;;;;;;;;0.87;70.19;97741.72;6297332;28;19923;-68
2022/12/24 00:47:33;;;;;;;;;;;;;;;0.78;69.80;97731.47;6296455;28;19920;-67
2022/12/24 00:50:34;;;;;;;;;;;;;;;0.96;69.78;97720.00;6296580;28;19920;-68
2022/12/24 00:53:35;;;;;;;;;;;;;;;0.87;69.82;97727.00;6296225;28;19964;-68
2022/12/24 00:56:39;;;;;;;;;;;;;;;0.88;70.32;97728.75;6296106;28;20010;-68
2022/12/24 00:59:45;;;;;;;;;;;;;;;0.73;70.30;97738.44;6296892;28;20038;-68
2022/12/24 01:02:48;;;;;;;;;;;;;;;0.87;70.64;97737.38;6295215;28;20309;-68
2022/12/24 01:05:57;;;;;;;;;;;;;;;0.70;70.62;97739.31;6296754;28;19924;-68
2022/12/24 01:08:58;;;;;;;;;;;;;;;0.64;70.66;97760.13;6296711;28;19967;-68
2022/12/24 01:11:59;;;;;;;;;;;;;;;0.46;71.80;97748.25;6296535;28;19928;-68
2022/12/24 01:15:01;;;;;;;;;;;;;;;0.61;71.45;97755.81;6295705;28;19923;-69
2022/12/24 01:18:02;;;;;;;;;;;;;;;0.53;71.46;97773.19;6296400;28;20271;-68
2022/12/24 01:21:03;;;;;;;;;;;;;;;0.62;71.50;97759.28;6296203;28;19928;-69
2022/12/24 01:24:09;;;;;;;;;;;;;;;0.60;71.37;97768.81;6296290;28;19919;-68
2022/12/24 01:27:10;;;;;;;;;;;;;;;0.64;70.92;97760.13;6296510;28;19920;-68
2022/12/24 01:30:13;;;;;;;;;;;;;;;0.62;71.01;97762.75;6296385;28;19927;-68
2022/12/24 01:33:16;;;;;;;;;;;;;;;0.70;70.80;97760.03;6296235;28;19927;-68
2022/12/24 01:36:22;;;;;;;;;;;;;;;0.69;71.05;97766.13;6296071;28;19920;-68
2022/12/24 01:39:25;;;;;;;;;;;;;;;0.74;70.61;97771.25;6295668;28;20004;-69
2022/12/24 01:45:48;;;;;;;;;;;;;;;0.66;70.17;97779.09;6296073;28;19928;-68
2022/12/24 01:48:59;;;;;;;;;;;;;;;0.80;70.01;97761.66;6296098;28;19920;-68
2022/12/24 01:52:05;;;;;;;;;;;;;;;0.65;70.12;97777.38;6295775;28;20007;-68
2022/12/24 01:55:12;;;;;;;;;;;;;;;0.68;69.84;97767.00;6294219;28;19920;-68
2022/12/24 01:58:15;;;;;;;;;;;;;;;0.71;70.12;97766.06;6294919;28;19925;-69
2022/12/24 02:01:16;;;;;;;;;;;;;;;0.82;70.02;97769.41;6295855;28;20015;-68
2022/12/24 02:04:29;;;;;;;;;;;;;;;0.70;69.75;97754.88;6295799;28;19928;-69
2022/12/24 02:07:30;;;;;;;;;;;;;;;0.58;70.57;97770.56;6298848;28;19921;-69
2022/12/24 02:10:36;;;;;;;;;;;;;;;0.52;70.75;97775.81;6300871;28;19924;-69
2022/12/24 02:13:37;;;;;;;;;;;;;;;0.73;69.83;97774.69;6300667;28;19920;-69
2022/12/24 02:16:39;;;;;;;;;;;;;;;0.66;69.77;97779.09;6300083;28;19928;-69
2022/12/24 02:19:57;;;;;;;;;;;;;;;0.70;69.98;97780.75;6300549;28;19970;-70
2022/12/24 02:23:25;;;;;;;;;;;;;;;0.73;69.73;97780.72;6299157;28;20500;-69
2022/12/24 02:26:37;;;;;;;;;;;;;;;0.66;69.52;97784.28;6297439;28;19920;-69
2022/12/24 02:29:47;;;;;;;;;;;;;;;0.58;70.37;97796.44;6299982;28;19920;-70
2022/12/24 02:32:51;;;;;;;;;;;;;;;0.40;69.94;97794.91;6300081;28;20041;-69
2022/12/24 02:36:03;;;;;;;;;;;;;;;0.48;70.42;97802.59;6299848;28;19982;-69
2022/12/24 02:39:09;;;;;;;;;;;;;;;0.48;70.36;97797.41;6299925;28;19947;-69
2022/12/24 02:42:14;;;;;;;;;;;;;;;0.51;70.35;97785.31;6299716;28;19920;-69
2022/12/24 02:45:24;;;;;;;;;;;;;;;0.38;70.40;97800.09;6299990;28;20385;-69
2022/12/24 02:48:27;;;;;;;;;;;;;;;0.52;69.98;97797.38;6299887;28;20454;-69
2022/12/24 02:51:28;;;;;;;;;;;;;;;0.37;70.38;97808.75;6299627;28;20386;-69
2022/12/24 02:54:32;;;;;;;;;;;;;;;0.43;70.32;97803.50;6299809;28;19920;-69
2022/12/24 02:57:47;;;;;;;;;;;;;;;0.43;70.57;97808.69;6299224;28;20327;-69
2022/12/24 03:01:16;;;;;;;;;;;;;;;0.43;70.28;97808.69;6299402;28;20013;-68
2022/12/24 03:04:40;;;;;;;;;;;;;;;0.56;69.93;97804.22;6299645;28;19927;-69
2022/12/24 03:07:48;;;;;;;;;;;;;;;0.53;70.13;97803.41;6299584;28;19924;-68
2022/12/24 03:10:56;;;;;;;;;;;;;;;0.43;70.61;97802.66;6298686;28;19928;-69
2022/12/24 03:13:58;;;;;;;;;;;;;;;0.42;70.37;97801.75;6299244;28;19934;-68
2022/12/24 03:17:07;;;;;;;;;;;;;;;0.80;69.32;97792.75;6299318;28;20301;-69
2022/12/24 03:20:10;;;;;;;;;;;;;;;0.69;69.02;97799.78;6298467;28;19920;-69
2022/12/24 03:23:13;;;;;;;;;;;;;;;0.70;68.90;97811.84;6299129;28;20428;-69
2022/12/24 03:26:16;;;;;;;;;;;;;;;0.81;68.72;97802.22;6298895;28;19920;-70
2022/12/24 03:29:21;;;;;;;;;;;;;;;0.85;68.63;97803.03;6299065;28;20003;-69
2022/12/24 03:32:27;;;;;;;;;;;;;;;0.78;69.16;97799.69;6299321;28;19920;-69
2022/12/24 03:35:33;;;;;;;;;;;;;;;0.73;69.07;97805.78;6298801;28;19920;-69
2022/12/24 03:38:34;;;;;;;;;;;;;;;0.74;69.28;97813.56;6298782;28;19926;-69
2022/12/24 03:41:38;;;;;;;;;;;;;;;0.55;69.49;97806.84;6298741;28;19921;-69
2022/12/24 03:44:41;;;;;;;;;;;;;;;0.54;70.08;97794.75;6298698;28;20373;-69
2022/12/24 03:47:42;;;;;;;;;;;;;;;0.62;69.39;97808.47;6298259;28;19920;-69
2022/12/24 03:50:43;;;;;;;;;;;;;;;0.51;69.95;97810.31;6298176;28;19926;-69
2022/12/24 03:53:48;;;;;;;;;;;;;;;0.47;70.38;97816.41;6298573;28;19928;-69
2022/12/24 03:56:51;;;;;;;;;;;;;;;0.44;69.91;97825.91;6298069;28;19920;-69
2022/12/24 03:59:58;;;;;;;;;;;;;;;0.37;70.58;97826.00;6298357;28;19921;-68
2022/12/24 04:03:01;;;;;;;;;;;;;;;0.46;70.82;97838.00;6298070;28;19920;-69
2022/12/24 04:06:06;;;;;;;;;;;;;;;0.59;69.92;97839.59;6297970;28;19928;-68
2022/12/24 04:09:11;;;;;;;;;;;;;;;0.44;69.94;97845.78;6297460;28;20503;-69
2022/12/24 04:12:17;;;;;;;;;;;;;;;0.57;69.77;97846.53;6297659;28;19927;-68
2022/12/24 04:15:18;;;;;;;;;;;;;;;0.62;70.04;97847.31;6297633;28;20331;-69
2022/12/24 04:18:19;;;;;;;;;;;;;;;0.67;69.97;97858.50;6297278;28;19926;-69
2022/12/24 04:21:20;;;;;;;;;;;;;;;0.66;69.84;97862.84;6297694;28;20421;-70
2022/12/24 04:24:26;;;;;;;;;;;;;;;0.71;69.65;97865.41;6297344;28;19916;-68
2022/12/24 04:27:29;;;;;;;;;;;;;;;0.65;69.81;97849.88;6297324;28;20053;-70
2022/12/24 04:30:56;;;;;;;;;;;;;;;0.49;69.60;97843.16;6281356;28;19916;-69
2022/12/24 04:34:05;;;;;;;;;;;;;;;0.43;70.20;97855.28;6297443;28;19931;-69
2022/12/24 04:37:11;;;;;;;;;;;;;;;0.75;69.58;97843.75;6297343;28;20021;-71
2022/12/24 04:40:12;;;;;;;;;;;;;;;0.93;69.28;97859.97;6296831;28;19920;-70
2022/12/24 04:43:19;;;;;;;;;;;;;;;0.96;68.62;97854.75;6295728;28;19920;-69
2022/12/24 04:46:23;;;;;;;;;;;;;;;0.89;68.36;97848.78;6296307;28;20294;-69
2022/12/24 04:49:29;;;;;;;;;;;;;;;0.96;68.08;97828.84;6296957;28;19974;-69
2022/12/24 04:52:30;;;;;;;;;;;;;;;0.77;68.44;97831.66;6296262;28;20386;-69
2022/12/24 04:55:36;;;;;;;;;;;;;;;0.73;67.95;97839.47;6296631;28;19920;-69
2022/12/24 04:58:37;;;;;;;;;;;;;;;0.89;67.36;97849.66;6296217;28;19920;-69
2022/12/24 05:01:40;;;;;;;;;;;;;;;0.98;66.61;97861.63;6296517;28;20403;-69
2022/12/24 05:04:46;;;;;;;;;;;;;;;0.75;67.77;97867.06;6296520;28;19924;-69
2022/12/24 05:07:53;;;;;;;;;;;;;;;0.81;67.35;97861.81;6296398;28;19920;-69
2022/12/24 05:10:57;;;;;;;;;;;;;;;1.10;67.06;97868.41;6295863;28;20397;-68
2022/12/24 05:14:01;;;;;;;;;;;;;;;0.84;66.81;97869.56;6296350;28;19920;-68
2022/12/24 05:17:05;;;;;;;;;;;;;;;1.09;67.85;97866.72;6295852;28;20382;-70
2022/12/24 05:20:06;;;;;;;;;;;;;;;1.19;67.04;97868.34;6296479;28;19928;-69
2022/12/24 05:26:36;;;;;;;;;;;;;;;1.50;66.03;97862.75;6296319;28;19920;-70
2022/12/24 05:29:41;;;;;;;;;;;;;;;1.43;66.88;97866.31;6296297;28;20010;-68
2022/12/24 05:32:42;;;;;;;;;;;;;;;1.44;65.90;97870.59;6295514;28;20297;-69
2022/12/24 05:35:43;;;;;;;;;;;;;;;1.33;66.74;97869.03;6295865;28;20389;-69
2022/12/24 05:38:44;;;;;;;;;;;;;;;1.31;66.34;97888.91;6295324;28;19927;-69
2022/12/24 05:41:45;;;;;;;;;;;;;;;1.38;66.28;97873.28;6295468;28;20347;-70
2022/12/24 05:44:46;;;;;;;;;;;;;;;1.30;66.03;97882.03;6295321;28;20026;-69
2022/12/24 05:47:49;;;;;;;;;;;;;;;1.43;65.65;97890.50;6296078;28;20430;-68
2022/12/24 05:50:50;;;;;;;;;;;;;;;1.40;65.54;97893.13;6295172;28;19920;-69
2022/12/24 05:53:53;;;;;;;;;;;;;;;1.24;66.23;97892.44;6295705;28;19920;-69
2022/12/24 05:57:02;;;;;;;;;;;;;;;1.21;66.10;97882.13;6295817;28;20280;-69
2022/12/24 06:00:05;;;;;;;;;;;;;;;1.34;66.68;97885.44;6295663;28;19920;-68
2022/12/24 06:03:09;;;;;;;;;;;;;;;1.51;65.92;97890.41;6295580;28;19917;-69
2022/12/24 06:06:12;;;;;;;;;;;;;;;1.56;65.67;97904.19;6295290;28;19928;-69
2022/12/24 06:09:19;;;;;;;;;;;;;;;1.76;64.96;97907.38;6295463;28;19916;-69
2022/12/24 06:12:22;;;;;;;;;;;;;;;1.92;64.48;97908.00;6295496;28;20342;-70
2022/12/24 06:15:26;;;;;;;;;;;;;;;2.03;63.88;97910.47;6294330;28;19924;-69
2022/12/24 06:18:30;;;;;;;;;;;;;;;2.06;64.02;97915.63;6295073;28;19940;-70
2022/12/24 06:21:33;;;;;;;;;;;;;;;2.20;63.99;97924.06;6293296;28;19920;-69
2022/12/24 06:24:36;;;;;;;;;;;;;;;2.63;62.36;97918.22;6295199;28;19924;-69
2022/12/24 06:27:40;;;;;;;;;;;;;;;2.65;61.77;97895.63;6295533;28;20315;-69
2022/12/24 06:30:45;;;;;;;;;;;;;;;2.54;61.86;97887.16;6294816;28;19920;-68
2022/12/24 06:33:52;;;;;;;;;;;;;;;2.46;62.25;97878.63;6295580;28;19924;-70
2022/12/24 06:36:53;;;;;;;;;;;;;;;2.28;62.38;97863.38;6294944;28;19920;-68
2022/12/24 06:39:56;;;;;;;;;;;;;;;2.01;63.24;97881.09;6295012;28;19927;-69
2022/12/24 06:42:57;;;;;;;;;;;;;;;2.08;63.37;97874.91;6295039;28;20389;-70
2022/12/24 06:46:01;;;;;;;;;;;;;;;2.09;63.24;97879.22;6294994;28;20018;-69
2022/12/24 06:49:02;;;;;;;;;;;;;;;1.98;63.28;97839.59;6294428;28;19931;-70
2022/12/24 06:52:06;;;;;;;;;;;;;;;2.08;63.16;97851.56;6295062;28;19940;-69
2022/12/24 06:55:07;;;;;;;;;;;;;;;1.93;63.85;97844.00;6297705;28;19920;-70
2022/12/24 06:58:08;;;;;;;;;;;;;;;1.96;63.90;97837.03;6298678;28;20014;-70
2022/12/24 07:01:11;;;;;;;;;;;;;;;2.12;63.40;97814.25;6297434;28;19920;-71
2022/12/24 07:04:14;;;;;;;;;;;;;;;2.10;63.22;97823.84;6299505;28;19931;-70
2022/12/24 07:07:17;;;;;;;;;;;;;;;2.34;62.71;97837.28;6299316;28;20300;-69
2022/12/24 07:10:21;;;;;;;;;;;;;;;2.46;61.84;97808.50;6299245;28;20014;-69
2022/12/24 07:13:24;;;;;;;;;;;;;;;2.54;60.53;97840.41;6299166;28;19920;-69
2022/12/24 07:16:27;;;;;;;;;;;;;;;2.40;59.88;97842.38;6299244;28;19920;-70
2022/12/24 07:19:31;;;;;;;;;;;;;;;2.34;59.17;97811.31;6298507;28;19920;-70
2022/12/24 07:22:32;;;;;;;;;;;;;;;2.75;56.57;97787.22;6298645;28;19920;-71
2022/12/24 07:25:40;;;;;;;;;;;;;;;4.14;52.86;97834.53;6298739;28;19920;-69
2022/12/24 07:28:41;;;;;;;;;;;;;;;5.50;48.81;97856.19;6298717;28;19927;-69
2022/12/24 07:31:47;;;;;;;;;;;;;;;6.83;45.43;97859.84;6298695;28;19924;-70
2022/12/24 07:34:48;;;;;;;;;;;;;;;8.88;41.47;97876.56;6298103;28;19920;-69
2022/12/24 07:37:49;;;;;;;;;;;;;;;10.18;38.44;97870.75;6298562;28;20012;-69
2022/12/24 07:40:50;;;;;;;;;;;;;;;10.23;37.67;97879.28;6298107;28;19921;-70
2022/12/24 07:43:51;;;;;;;;;;;;;;;11.06;35.40;97883.13;6298441;28;19920;-70
2022/12/24 07:46:57;;;;;;;;;;;;;;;12.00;33.73;97892.31;6298255;28;19921;-69
2022/12/24 07:49:58;;;;;;;;;;;;;;;12.54;31.52;97882.25;6297625;28;19927;-70
2022/12/24 07:52:59;;;;;;;;;;;;;;;12.84;30.19;97888.50;6298040;28;19920;-70
2022/12/24 07:56:00;;;;;;;;;;;;;;;12.96;29.93;97882.50;6297310;28;19920;-70
2022/12/24 07:59:06;;;;;;;;;;;;;;;12.98;30.05;97892.03;6297966;28;20081;-70
2022/12/24 08:02:12;;;;;;;;;;;;;;;13.37;29.42;97888.03;6297845;28;19967;-70
2022/12/24 08:05:13;;;;;;;;;;;;;;;13.98;29.45;97879.91;6297625;28;19943;-70
2022/12/24 08:08:19;;;;;;;;;;;;;;;13.04;29.04;97880.28;6297851;28;19920;-69
2022/12/24 08:11:22;;;;;;;;;;;;;;;11.41;30.62;97883.97;6297666;28;19920;-70
2022/12/24 08:14:28;;;;;;;;;;;;;;;10.24;30.68;97877.50;6297793;28;19959;-70
2022/12/24 08:17:32;;;;;;;;;;;;;;;9.39;31.81;97862.94;6297764;28;19927;-70
2022/12/24 08:20:36;;;;;;;;;;;;;;;8.72;32.72;97876.38;6297084;28;19920;-69
2022/12/24 08:23:38;;;;;;;;;;;;;;;9.21;31.79;97872.50;6297496;28;20412;-69
2022/12/24 08:26:39;;;;;;;;;;;;;;;9.78;30.81;97874.38;6296907;28;19943;-69
2022/12/24 08:29:43;;;;;;;;;;;;;;;10.47;29.91;97879.03;6297411;28;19920;-70
2022/12/24 08:32:47;;;;;;;;;;;;;;;11.66;28.77;97878.28;6297483;28;19920;-69
2022/12/24 08:35:52;;;;;;;;;;;;;;;11.76;27.67;97896.22;6297378;28;20372;-70
2022/12/24 08:38:55;;;;;;;;;;;;;;;12.31;26.39;97895.88;6297239;28;19920;-69
2022/12/24 08:41:56;;;;;;;;;;;;;;;12.42;26.05;97882.94;6296762;28;19921;-69
2022/12/24 08:44:59;;;;;;;;;;;;;;;12.11;26.82;97873.25;6297249;28;19927;-70
2022/12/24 08:48:03;;;;;;;;;;;;;;;12.31;26.36;97865.09;6297073;28;19920;-69
2022/12/24 08:51:07;;;;;;;;;;;;;;;12.23;26.03;97892.81;6296891;28;20437;-69
2022/12/24 08:54:13;;;;;;;;;;;;;;;12.24;25.73;97876.06;6296819;28;20456;-68
2022/12/24 08:57:14;;;;;;;;;;;;;;;12.95;25.60;97870.25;6296630;28;19920;-69
2022/12/24 09:00:17;;;;;;;;;;;;;;;13.11;25.04;97871.06;6296786;28;20030;-69
2022/12/24 09:03:21;;;;;;;;;;;;;;;13.02;25.22;97882.13;6296552;28;19920;-69
2022/12/24 09:06:26;;;;;;;;;;;;;;;12.86;24.94;97879.56;6296461;28;19920;-69
2022/12/24 09:09:32;;;;;;;;;;;;;;;12.39;25.28;97872.56;6296077;28;20021;-70
2022/12/24 09:12:36;;;;;;;;;;;;;;;12.35;25.06;97873.69;6296390;28;19920;-69
2022/12/24 09:15:39;;;;;;;;;;;;;;;12.35;24.88;97866.59;6296031;28;19943;-70
2022/12/24 09:18:40;;;;;;;;;;;;;;;12.50;24.51;97856.97;6295808;28;19920;-69
2022/12/24 09:21:47;;;;;;;;;;;;;;;12.89;23.87;97860.88;6296464;28;20443;-69
2022/12/24 09:25:04;;;;;;;;;;;;;;;13.16;24.39;97847.84;6296244;28;20301;-70
2022/12/24 09:28:09;;;;;;;;;;;;;;;13.39;23.59;97854.44;6296207;28;19927;-69
2022/12/24 09:31:13;;;;;;;;;;;;;;;12.99;23.30;97853.25;6296090;28;19927;-69
2022/12/24 09:34:14;;;;;;;;;;;;;;;11.61;24.48;97864.47;6295962;28;19920;-70
2022/12/24 09:37:17;;;;;;;;;;;;;;;10.69;25.62;97858.66;6295964;28;19927;-70
2022/12/24 09:40:27;;;;;;;;;;;;;;;9.52;26.85;97851.91;6295921;28;19926;-69
2022/12/24 09:43:31;;;;;;;;;;;;;;;7.94;28.90;97854.06;6296046;28;19925;-69
2022/12/24 09:46:38;;;;;;;;;;;;;;;7.23;29.89;97847.13;6295880;28;19921;-70
2022/12/24 09:49:43;;;;;;;;;;;;;;;7.97;28.94;97840.84;6295616;28;19921;-69
2022/12/24 09:52:46;;;;;;;;;;;;;;;8.28;28.29;97850.97;6295760;28;19955;-69
2022/12/24 09:55:50;;;;;;;;;;;;;;;8.96;26.81;97828.06;6295094;28;19926;-69
2022/12/24 09:59:12;;;;;;;;;;;;;;;9.06;26.51;97846.03;6295187;28;19952;-69
2022/12/24 10:02:18;;;;;;;;;;;;;;;9.14;26.50;97857.06;6295078;28;20397;-69
2022/12/24 10:05:28;;;;;;;;;;;;;;;8.79;27.42;97866.47;6295689;28;19986;-70
2022/12/24 10:08:39;;;;;;;;;;;;;;;7.32;29.21;97876.44;6295695;28;20401;-68
2022/12/24 10:11:49;;;;;;;;;;;;;;;5.45;31.83;97864.13;6295734;28;19920;-69
2022/12/24 10:15:11;;;;;;;;;;;;;;;4.07;34.07;97864.22;6295391;28;19920;-69
2022/12/24 10:18:15;;;;;;;;;;;;;;;3.10;35.85;97851.50;6295906;28;19920;-70
2022/12/24 10:21:22;;;;;;;;;;;;;;;2.27;37.55;97857.31;6295076;28;19935;-69
2022/12/24 10:24:34;;;;;;;;;;;;;;;1.85;37.86;97859.69;6295213;28;19920;-69
2022/12/24 10:27:38;;;;;;;;;;;;;;;1.66;38.18;97853.88;6294826;28;19978;-70
2022/12/24 10:30:47;;;;;;;;;;;;;;;1.56;38.31;97863.53;6300412;28;20518;-68
2022/12/24 10:33:52;;;;;;;;;;;;;;;1.42;38.81;97854.22;6300134;28;19943;-69
2022/12/24 10:36:55;;;;;;;;;;;;;;;1.38;38.86;97868.94;6298800;28;19920;-69
2022/12/24 10:40:00;;;;;;;;;;;;;;;1.25;38.64;97862.22;6299657;28;20305;-70
2022/12/24 10:43:24;;;;;;;;;;;;;;;0.96;39.54;97875.47;6299869;28;20061;-68
2022/12/24 10:50:15;;;;;;;;;;;;;;;0.88;38.76;97870.41;6299583;28;19927;-69
2022/12/24 10:53:18;;;;;;;;;;;;;;;0.95;38.99;97884.16;6299373;28;19920;-69
2022/12/24 10:56:22;;;;;;;;;;;;;;;0.79;39.36;97889.50;6299403;28;19920;-69
2022/12/24 10:59:26;;;;;;;;;;;;;;;0.75;39.01;97902.47;6299010;28;19982;-68
2022/12/24 11:02:27;;;;;;;;;;;;;;;0.69;38.57;97900.81;6297590;28;19920;-69
2022/12/24 11:05:30;;;;;;;;;;;;;;;0.59;39.12;97906.94;6298665;28;20062;-68
2022/12/24 11:08:34;;;;;;;;;;;;;;;0.63;38.90;97898.28;6299057;28;19921;-68
2022/12/24 11:11:37;;;;;;;;;;;;;;;0.51;39.04;97903.53;6299225;28;19924;-69
2022/12/24 11:14:41;;;;;;;;;;;;;;;0.51;39.32;97908.72;6299210;28;19920;-69
2022/12/24 11:17:55;;;;;;;;;;;;;;;0.53;39.22;97906.97;6299281;28;19968;-69
2022/12/24 11:21:02;;;;;;;;;;;;;;;0.17;40.11;97908.97;6299155;28;19920;-69
2022/12/24 11:24:20;;;;;;;;;;;;;;;0.04;40.84;97913.38;6298818;28;20026;-69
2022/12/24 11:27:27;;;;;;;;;;;;;;;0.11;41.37;97920.22;6298734;28;19924;-69
2022/12/24 11:30:29;;;;;;;;;;;;;;;0.01;41.33;97925.50;6297817;28;19981;-68
2022/12/24 11:33:45;;;;;;;;;;;;;;;0.03;41.28;97932.38;6298859;28;19921;-69
2022/12/24 11:36:49;;;;;;;;;;;;;;;0.07;40.84;97917.69;6298697;28;20317;-70
2022/12/24 11:39:57;;;;;;;;;;;;;;;-0.23;41.74;97935.09;6298182;28;19928;-69
2022/12/24 11:43:01;;;;;;;;;;;;;;;-0.06;41.44;97928.13;6298181;28;19928;-69
2022/12/24 11:46:10;;;;;;;;;;;;;;;-0.19;41.84;97926.47;6298245;28;20078;-69
2022/12/24 11:49:11;;;;;;;;;;;;;;;-0.30;41.91;97918.75;6296520;28;19968;-68
2022/12/24 11:52:19;;;;;;;;;;;;;;;-0.43;42.23;97911.06;6298185;28;19920;-69
2022/12/24 11:55:40;;;;;;;;;;;;;;;-0.15;41.74;97912.63;6297567;28;19927;-68
2022/12/24 11:58:41;;;;;;;;;;;;;;;-0.47;42.46;97926.59;6298048;28;19920;-69
2022/12/24 12:01:51;;;;;;;;;;;;;;;-0.33;41.84;97918.78;6297994;28;19920;-69
2022/12/24 12:05:03;;;;;;;;;;;;;;;-0.19;40.99;97929.06;6298068;28;19969;-68
2022/12/24 12:08:10;;;;;;;;;;;;;;;-0.25;41.24;97936.84;6296799;28;20026;-69
2022/12/24 12:11:13;;;;;;;;;;;;;;;-0.22;40.47;97934.25;6297527;28;20403;-69
2022/12/24 12:14:23;;;;;;;;;;;;;;;-0.09;40.86;97932.44;6297358;28;19927;-70
2022/12/24 12:17:31;;;;;;;;;;;;;;;-0.22;40.68;97936.84;6297585;28;19943;-69
2022/12/24 12:20:41;;;;;;;;;;;;;;;-0.38;41.49;97940.34;6296866;28;19959;-69
2022/12/24 12:23:56;;;;;;;;;;;;;;;-0.49;41.32;97941.25;6296951;28;19920;-68
2022/12/24 12:27:12;;;;;;;;;;;;;;;-0.50;41.56;97947.28;6297289;28;20286;-68
2022/12/24 12:30:16;;;;;;;;;;;;;;;-0.53;41.46;97949.03;6297047;28;20313;-69
2022/12/24 12:33:29;;;;;;;;;;;;;;;-0.67;41.74;97951.66;6296475;28;20011;-68
2022/12/24 12:36:39;;;;;;;;;;;;;;;-0.80;41.82;97960.31;6295107;28;19921;-68
2022/12/24 12:39:40;;;;;;;;;;;;;;;-0.83;42.13;97957.72;6296567;28;19920;-68
2022/12/24 12:42:50;;;;;;;;;;;;;;;-0.99;42.05;97957.78;6297023;28;20050;-69
2022/12/24 12:46:05;;;;;;;;;;;;;;;-1.10;42.60;97959.50;6296726;28;19928;-68
2022/12/24 12:49:28;;;;;;;;;;;;;;;-1.12;42.60;97961.22;6296528;28;19942;-69
2022/12/24 12:52:31;;;;;;;;;;;;;;;-0.71;41.08;97952.50;6295254;28;19927;-69
2022/12/24 12:55:35;;;;;;;;;;;;;;;-0.59;40.47;97952.50;6296346;28;19928;-68
2022/12/24 12:58:39;;;;;;;;;;;;;;;-0.50;38.65;97962.81;6296476;28;19920;-68
2022/12/24 13:01:46;;;;;;;;;;;;;;;-0.35;38.08;97964.47;6295940;28;20611;-69
2022/12/24 13:04:49;;;;;;;;;;;;;;;-0.36;37.40;97954.13;6296272;28;19927;-69
2022/12/24 13:08:09;;;;;;;;;;;;;;;-0.49;37.50;97949.00;6296339;28;19923;-67
2022/12/24 13:11:28;;;;;;;;;;;;;;;-0.34;37.00;97952.38;6296014;28;20014;-69
2022/12/24 13:14:29;;;;;;;;;;;;;;;-0.37;36.85;97957.56;6294608;28;20012;-69
2022/12/24 13:17:51;;;;;;;;;;;;;;;-0.63;38.19;97961.13;6295907;28;19920;-68
2022/12/24 13:20:55;;;;;;;;;;;;;;;-0.80;38.49;97962.88;6296169;28;19926;-67
2022/12/24 13:24:14;;;;;;;;;;;;;;;-0.80;38.20;97968.91;6296235;28;19927;-68
2022/12/24 13:27:20;;;;;;;;;;;;;;;-1.08;39.19;97970.69;6295174;28;19916;-69
2022/12/24 13:30:32;;;;;;;;;;;;;;;-1.22;40.16;97972.41;6295956;28;20377;-69
2022/12/24 13:33:36;;;;;;;;;;;;;;;-1.27;39.93;97981.91;6295833;28;20050;-68
2022/12/24 13:37:09;;;;;;;;;;;;;;;-1.42;39.74;97982.75;6296014;28;19920;-68
2022/12/24 13:40:31;;;;;;;;;;;;;;;-1.51;40.20;97991.34;6283944;28;20397;-68
2022/12/24 13:43:52;;;;;;;;;;;;;;;-1.76;40.53;97992.16;6295083;28;20373;-68
2022/12/24 13:47:14;;;;;;;;;;;;;;;-1.95;41.45;97991.25;6295015;28;20378;-69
2022/12/24 13:50:22;;;;;;;;;;;;;;;-2.11;41.92;97990.38;6295829;28;19920;-68
2022/12/24 13:53:40;;;;;;;;;;;;;;;-2.20;41.96;97990.34;6295903;28;19924;-69
2022/12/24 13:56:45;;;;;;;;;;;;;;;-2.26;41.88;97996.34;6294898;28;19924;-68
2022/12/24 13:59:55;;;;;;;;;;;;;;;-2.22;41.75;97995.47;6295974;28;19921;-68
2022/12/24 14:03:05;;;;;;;;;;;;;;;-2.14;40.72;97998.09;6297922;28;19920;-68
2022/12/24 14:06:10;;;;;;;;;;;;;;;-1.98;39.99;97986.97;6300944;28;19920;-69
2022/12/24 14:09:16;;;;;;;;;;;;;;;-1.61;37.64;97992.22;6300698;28;20373;-68
2022/12/24 14:12:45;;;;;;;;;;;;;;;-1.67;37.92;97979.28;6299898;28;19920;-69
2022/12/24 14:15:55;;;;;;;;;;;;;;;-1.50;36.79;97975.03;6294721;28;20015;-68
2022/12/24 14:19:17;;;;;;;;;;;;;;;-1.45;36.15;97973.28;6300557;28;19940;-68
2022/12/24 14:22:32;;;;;;;;;;;;;;;-1.48;36.46;97978.44;6300498;28;20003;-69
2022/12/24 14:25:37;;;;;;;;;;;;;;;-1.39;36.03;97969.84;6300571;28;19921;-68
2022/12/24 14:28:58;;;;;;;;;;;;;;;-1.33;34.36;97968.97;6300355;28;19920;-68
2022/12/24 14:32:03;;;;;;;;;;;;;;;-1.44;35.75;97956.94;6299747;28;20393;-69
2022/12/24 14:35:07;;;;;;;;;;;;;;;-1.56;35.60;97959.50;6299764;28;20378;-69
2022/12/24 14:38:13;;;;;;;;;;;;;;;-1.68;36.60;97964.66;6300058;28;19928;-67
2022/12/24 14:41:22;;;;;;;;;;;;;;;-1.56;36.24;97959.50;6299872;28;19924;-69
2022/12/24 14:44:27;;;;;;;;;;;;;;;-1.56;35.81;97959.50;6299625;28;20382;-68
2022/12/24 14:47:46;;;;;;;;;;;;;;;-1.43;34.93;97950.91;6299634;28;19932;-68
2022/12/24 14:51:13;;;;;;;;;;;;;;;-1.69;35.68;97970.69;6299858;28;19920;-68
2022/12/24 14:54:25;;;;;;;;;;;;;;;-1.74;35.00;97965.50;6299813;28;20290;-69
2022/12/24 14:57:27;;;;;;;;;;;;;;;-1.92;35.22;97966.34;6299260;28;19942;-68
2022/12/24 15:00:28;;;;;;;;;;;;;;;-1.83;34.81;97966.38;6299695;28;19927;-69
2022/12/24 15:03:33;;;;;;;;;;;;;;;-1.76;34.20;97961.22;6299464;28;19921;-68
2022/12/24 15:06:39;;;;;;;;;;;;;;;-1.90;33.96;97963.75;6299587;28;19924;-69
2022/12/24 15:09:42;;;;;;;;;;;;;;;-1.65;32.98;97969.81;6298581;28;19943;-68
2022/12/24 15:12:46;;;;;;;;;;;;;;;-1.69;33.45;97979.28;6299458;28;20313;-68
2022/12/24 15:15:48;;;;;;;;;;;;;;;-2.10;34.34;97979.19;6297834;28;19920;-68
2022/12/24 15:18:55;;;;;;;;;;;;;;;-2.42;35.32;97986.81;6297149;28;19921;-69
2022/12/24 15:21:57;;;;;;;;;;;;;;;-2.67;36.03;97985.84;6299201;28;19920;-69
2022/12/24 15:25:00;;;;;;;;;;;;;;;-2.92;36.92;97977.94;6299186;28;19920;-69
2022/12/24 15:28:14;;;;;;;;;;;;;;;-3.13;37.73;97982.97;6299000;28;20409;-68
2022/12/24 15:31:18;;;;;;;;;;;;;;;-3.26;37.85;97985.44;6298510;28;20309;-69
2022/12/24 15:34:25;;;;;;;;;;;;;;;-3.41;38.04;97975.03;6298905;28;19928;-68
2022/12/24 15:37:27;;;;;;;;;;;;;;;-3.55;38.64;97974.06;6298818;28;19921;-69
2022/12/24 15:40:33;;;;;;;;;;;;;;;-3.76;39.20;97960.19;6298851;28;19920;-68
2022/12/24 15:43:38;;;;;;;;;;;;;;;-3.97;39.75;97959.97;6297954;28;20022;-68
2022/12/24 15:46:41;;;;;;;;;;;;;;;-4.14;40.23;97958.06;6298382;28;19920;-67
2022/12/24 15:49:51;;;;;;;;;;;;;;;-4.15;40.33;97951.22;6298276;28;19920;-68
2022/12/24 15:52:52;;;;;;;;;;;;;;;-4.29;40.89;97945.94;6298421;28;20298;-69
2022/12/24 15:56:02;;;;;;;;;;;;;;;-4.33;40.58;97953.56;6297428;28;19951;-69
2022/12/24 15:59:11;;;;;;;;;;;;;;;-4.39;41.46;97956.94;6298079;28;20027;-69
2022/12/24 16:02:25;;;;;;;;;;;;;;;-4.46;41.36;97960.31;6298361;28;19920;-69
2022/12/24 16:05:30;;;;;;;;;;;;;;;-4.57;41.63;97965.31;6298416;28;20385;-68
2022/12/24 16:08:35;;;;;;;;;;;;;;;-4.59;41.77;97969.53;6298033;28;19920;-69
2022/12/24 16:11:38;;;;;;;;;;;;;;;-4.67;42.09;97960.91;6297908;28;19927;-69
2022/12/24 16:14:57;;;;;;;;;;;;;;;-4.50;41.58;97958.56;6297884;28;19924;-68
2022/12/24 16:18:09;;;;;;;;;;;;;;;-4.23;39.77;97963.13;6297746;28;19991;-68
2022/12/24 16:21:17;;;;;;;;;;;;;;;-4.21;39.96;97955.44;6295711;28;19920;-68
2022/12/24 16:24:24;;;;;;;;;;;;;;;-4.13;39.76;97970.09;6297680;28;20830;-70
2022/12/24 16:27:30;;;;;;;;;;;;;;;-4.12;39.58;97966.66;6297617;28;19920;-68